LOG53MA EGPH-EGPA
Flight info
| Callsign | LOG53MA |
|---|---|
| Flight time | 0h 52m |
| Altitude | 19000 |
| Route | GRICE P600 ADN/N0282F180 DCT WIK N560 KOKAL |
| Aircraft | SF34/M-SDFGR/S |
Departure
| Time | 2026-05-06 19:31 |
|---|---|
| Airport | Edinburgh Airport (EGPH) |
Arrival
| Time | 2026-05-06 20:24 |
|---|---|
| Airport | Kirkwall Airport (EGPA) |
| Time | Latitude | Longitude | Altitude | Speed | Heading |
|---|---|---|---|---|---|
| 2026-05-06 18:50 | 55.94745 | -3.35494 | 112 ft | 0 kts | 208° |
| 2026-05-06 19:20 | 55.94746 | -3.35493 | 112 ft | 2 kts | 208° |
| 2026-05-06 19:20 | 55.94767 | -3.35471 | 109 ft | 4 kts | 215° |
| 2026-05-06 19:20 | 55.94787 | -3.35440 | 112 ft | 4 kts | 238° |
| 2026-05-06 19:20 | 55.94792 | -3.35403 | 112 ft | 2 kts | 297° |
| 2026-05-06 19:21 | 55.94790 | -3.35393 | 112 ft | 0 kts | 298° |
| 2026-05-06 19:25 | 55.94791 | -3.35397 | 112 ft | 3 kts | 298° |
| 2026-05-06 19:25 | 55.94826 | -3.35513 | 112 ft | 15 kts | 298° |
| 2026-05-06 19:25 | 55.94866 | -3.35642 | 112 ft | 13 kts | 298° |
| 2026-05-06 19:25 | 55.94894 | -3.35734 | 112 ft | 12 kts | 298° |
| 2026-05-06 19:26 | 55.94957 | -3.35854 | 112 ft | 10 kts | 4° |
| 2026-05-06 19:26 | 55.94994 | -3.35843 | 112 ft | 0 kts | 23° |
| 2026-05-06 19:26 | 55.95000 | -3.35838 | 111 ft | 5 kts | 26° |
| 2026-05-06 19:26 | 55.95067 | -3.35876 | 112 ft | 13 kts | 294° |
| 2026-05-06 19:27 | 55.95099 | -3.36026 | 110 ft | 15 kts | 290° |
| 2026-05-06 19:27 | 55.95136 | -3.36260 | 112 ft | 18 kts | 263° |
| 2026-05-06 19:27 | 55.95071 | -3.36475 | 111 ft | 25 kts | 238° |
| 2026-05-06 19:27 | 55.94985 | -3.36722 | 111 ft | 25 kts | 237° |
| 2026-05-06 19:28 | 55.94919 | -3.36922 | 111 ft | 10 kts | 234° |
| 2026-05-06 19:28 | 55.94871 | -3.37054 | 111 ft | 18 kts | 236° |
| 2026-05-06 19:28 | 55.94776 | -3.37283 | 111 ft | 22 kts | 249° |
| 2026-05-06 19:28 | 55.94705 | -3.37542 | 111 ft | 24 kts | 236° |
| 2026-05-06 19:29 | 55.94647 | -3.37750 | 110 ft | 14 kts | 243° |
| 2026-05-06 19:29 | 55.94594 | -3.37922 | 111 ft | 15 kts | 267° |
| 2026-05-06 19:29 | 55.94602 | -3.37959 | 111 ft | 0 kts | 325° |
| 2026-05-06 19:30 | 55.94634 | -3.37994 | 110 ft | 13 kts | 328° |
| 2026-05-06 19:30 | 55.94717 | -3.38069 | 110 ft | 2 kts | 26° |
| 2026-05-06 19:30 | 55.94734 | -3.38020 | 111 ft | 23 kts | 58° |
| 2026-05-06 19:30 | 55.94955 | -3.37386 | 107 ft | 96 kts | 61° |
| 2026-05-06 19:31 | 55.95377 | -3.36022 | 164 ft | 149 kts | 63° |
| 2026-05-06 19:31 | 55.95981 | -3.34323 | 549 ft | 176 kts | 59° |
| 2026-05-06 19:31 | 55.97884 | -3.31160 | 1720 ft | 205 kts | 26° |
| 2026-05-06 19:32 | 55.99079 | -3.29936 | 2580 ft | 188 kts | 51° |
| 2026-05-06 19:32 | 55.99895 | -3.28316 | 3756 ft | 164 kts | 33° |
| 2026-05-06 19:32 | 56.00873 | -3.27569 | 4782 ft | 148 kts | 21° |
| 2026-05-06 19:32 | 56.01902 | -3.27171 | 5370 ft | 155 kts | 2° |
| 2026-05-06 19:33 | 56.03013 | -3.27199 | 5914 ft | 169 kts | 349° |
| 2026-05-06 19:33 | 56.04229 | -3.27809 | 6208 ft | 194 kts | 334° |
| 2026-05-06 19:33 | 56.05374 | -3.29091 | 6815 ft | 193 kts | 317° |
| 2026-05-06 19:33 | 56.06268 | -3.30860 | 7461 ft | 193 kts | 301° |
| 2026-05-06 19:34 | 56.06850 | -3.33014 | 8109 ft | 192 kts | 285° |
| 2026-05-06 19:34 | 56.07178 | -3.35326 | 8743 ft | 193 kts | 284° |
| 2026-05-06 19:34 | 56.07570 | -3.37643 | 9382 ft | 196 kts | 284° |
| 2026-05-06 19:34 | 56.07914 | -3.39980 | 10006 ft | 198 kts | 282° |
| 2026-05-06 19:35 | 56.08269 | -3.42356 | 10631 ft | 197 kts | 283° |
| 2026-05-06 19:35 | 56.08628 | -3.44726 | 11279 ft | 198 kts | 282° |
| 2026-05-06 19:35 | 56.08985 | -3.47120 | 11918 ft | 199 kts | 283° |
| 2026-05-06 19:35 | 56.09347 | -3.49529 | 12572 ft | 201 kts | 282° |
| 2026-05-06 19:36 | 56.09709 | -3.51947 | 13235 ft | 202 kts | 282° |
| 2026-05-06 19:36 | 56.10132 | -3.54356 | 13865 ft | 206 kts | 296° |
| 2026-05-06 19:36 | 56.10985 | -3.56450 | 14421 ft | 209 kts | 301° |
| 2026-05-06 19:36 | 56.11802 | -3.58604 | 15031 ft | 210 kts | 300° |
| 2026-05-06 19:37 | 56.12614 | -3.60790 | 15645 ft | 211 kts | 300° |
| 2026-05-06 19:37 | 56.13428 | -3.62986 | 16258 ft | 212 kts | 300° |
| 2026-05-06 19:37 | 56.14255 | -3.65171 | 16821 ft | 214 kts | 306° |
| 2026-05-06 19:37 | 56.15516 | -3.66655 | 17384 ft | 226 kts | 338° |
| 2026-05-06 19:38 | 56.17081 | -3.67215 | 17875 ft | 230 kts | 341° |
| 2026-05-06 19:38 | 56.18616 | -3.67992 | 18389 ft | 230 kts | 340° |
| 2026-05-06 19:38 | 56.20244 | -3.67921 | 18828 ft | 244 kts | 13° |
| 2026-05-06 19:38 | 56.21691 | -3.66258 | 19259 ft | 254 kts | 39° |
| 2026-05-06 19:39 | 56.23033 | -3.64160 | 19666 ft | 255 kts | 32° |
| 2026-05-06 19:39 | 56.24501 | -3.62322 | 19839 ft | 267 kts | 28° |
| 2026-05-06 19:39 | 56.26078 | -3.60403 | 19874 ft | 281 kts | 31° |
| 2026-05-06 19:39 | 56.27684 | -3.58249 | 19784 ft | 292 kts | 32° |
| 2026-05-06 19:40 | 56.29336 | -3.56113 | 19595 ft | 293 kts | 30° |
| 2026-05-06 19:40 | 56.31015 | -3.54007 | 19366 ft | 296 kts | 31° |
| 2026-05-06 19:40 | 56.32683 | -3.51815 | 19136 ft | 297 kts | 32° |
| 2026-05-06 19:40 | 56.34361 | -3.49655 | 19031 ft | 293 kts | 31° |
| 2026-05-06 19:41 | 56.36004 | -3.47548 | 19038 ft | 288 kts | 32° |
| 2026-05-06 19:41 | 56.37623 | -3.45439 | 19044 ft | 286 kts | 32° |
| 2026-05-06 19:41 | 56.39232 | -3.43363 | 19048 ft | 284 kts | 31° |
| 2026-05-06 19:41 | 56.40835 | -3.41285 | 19049 ft | 283 kts | 31° |
| 2026-05-06 19:42 | 56.42432 | -3.39210 | 19053 ft | 283 kts | 31° |
| 2026-05-06 19:42 | 56.44028 | -3.37138 | 19054 ft | 282 kts | 31° |
| 2026-05-06 19:42 | 56.45634 | -3.35109 | 19058 ft | 281 kts | 29° |
| 2026-05-06 19:42 | 56.47268 | -3.33149 | 19059 ft | 281 kts | 30° |
| 2026-05-06 19:43 | 56.48875 | -3.31138 | 19054 ft | 282 kts | 31° |
| 2026-05-06 19:43 | 56.50492 | -3.29130 | 19060 ft | 281 kts | 30° |
| 2026-05-06 19:43 | 56.52110 | -3.27144 | 19059 ft | 281 kts | 30° |
| 2026-05-06 19:43 | 56.53724 | -3.25130 | 19067 ft | 282 kts | 30° |
| 2026-05-06 19:44 | 56.55342 | -3.23126 | 19063 ft | 282 kts | 30° |
| 2026-05-06 19:44 | 56.56964 | -3.21112 | 19064 ft | 282 kts | 30° |
| 2026-05-06 19:44 | 56.58580 | -3.19099 | 19062 ft | 282 kts | 30° |
| 2026-05-06 19:44 | 56.60197 | -3.17089 | 19063 ft | 282 kts | 30° |
| 2026-05-06 19:45 | 56.61818 | -3.15067 | 19063 ft | 282 kts | 30° |
| 2026-05-06 19:45 | 56.63437 | -3.13049 | 19061 ft | 282 kts | 30° |
| 2026-05-06 19:45 | 56.65051 | -3.11031 | 19060 ft | 282 kts | 30° |
| 2026-05-06 19:45 | 56.66671 | -3.09008 | 19059 ft | 282 kts | 30° |
| 2026-05-06 19:46 | 56.68289 | -3.06981 | 19058 ft | 282 kts | 30° |
| 2026-05-06 19:46 | 56.69908 | -3.04952 | 19055 ft | 282 kts | 30° |
| 2026-05-06 19:46 | 56.71525 | -3.02929 | 19054 ft | 282 kts | 30° |
| 2026-05-06 19:46 | 56.73117 | -3.00931 | 19057 ft | 282 kts | 30° |
| 2026-05-06 19:47 | 56.74733 | -2.98902 | 19055 ft | 282 kts | 30° |
| 2026-05-06 19:47 | 56.76348 | -2.96874 | 19050 ft | 282 kts | 30° |
| 2026-05-06 19:47 | 56.77967 | -2.94835 | 19052 ft | 283 kts | 30° |
| 2026-05-06 19:47 | 56.79580 | -2.92794 | 19049 ft | 282 kts | 30° |
| 2026-05-06 19:48 | 56.81195 | -2.90755 | 19059 ft | 283 kts | 30° |
| 2026-05-06 19:48 | 56.82813 | -2.88711 | 19048 ft | 283 kts | 30° |
| 2026-05-06 19:48 | 56.84427 | -2.86664 | 19047 ft | 282 kts | 30° |
| 2026-05-06 19:48 | 56.86039 | -2.84624 | 19048 ft | 282 kts | 30° |
| 2026-05-06 19:49 | 56.87647 | -2.82584 | 19048 ft | 282 kts | 30° |
| 2026-05-06 19:49 | 56.89254 | -2.80541 | 19051 ft | 282 kts | 30° |
| 2026-05-06 19:49 | 56.90866 | -2.78493 | 19051 ft | 282 kts | 30° |
| 2026-05-06 19:49 | 56.92476 | -2.76451 | 19050 ft | 282 kts | 30° |
| 2026-05-06 19:50 | 56.94084 | -2.74404 | 19052 ft | 282 kts | 30° |
| 2026-05-06 19:50 | 56.95694 | -2.72356 | 19050 ft | 281 kts | 30° |
| 2026-05-06 19:50 | 56.97300 | -2.70309 | 19052 ft | 282 kts | 30° |
| 2026-05-06 19:50 | 56.98905 | -2.68255 | 19052 ft | 281 kts | 31° |
| 2026-05-06 19:51 | 57.00510 | -2.66204 | 19053 ft | 281 kts | 30° |
| 2026-05-06 19:51 | 57.02094 | -2.64178 | 19055 ft | 281 kts | 30° |
| 2026-05-06 19:51 | 57.03697 | -2.62120 | 19054 ft | 281 kts | 31° |
| 2026-05-06 19:51 | 57.05299 | -2.60067 | 19057 ft | 281 kts | 30° |
| 2026-05-06 19:52 | 57.06897 | -2.58014 | 19061 ft | 281 kts | 31° |
| 2026-05-06 19:52 | 57.08504 | -2.55946 | 19079 ft | 281 kts | 30° |
| 2026-05-06 19:52 | 57.10114 | -2.53876 | 19065 ft | 283 kts | 30° |
| 2026-05-06 19:52 | 57.11725 | -2.51799 | 19066 ft | 283 kts | 31° |
| 2026-05-06 19:53 | 57.13340 | -2.49715 | 19061 ft | 283 kts | 30° |
| 2026-05-06 19:53 | 57.14952 | -2.47634 | 19067 ft | 283 kts | 30° |
| 2026-05-06 19:53 | 57.16566 | -2.45548 | 19070 ft | 283 kts | 30° |
| 2026-05-06 19:53 | 57.18177 | -2.43463 | 19071 ft | 283 kts | 30° |
| 2026-05-06 19:54 | 57.19791 | -2.41372 | 19072 ft | 283 kts | 31° |
| 2026-05-06 19:54 | 57.21403 | -2.39281 | 19072 ft | 283 kts | 30° |
| 2026-05-06 19:54 | 57.23014 | -2.37189 | 19067 ft | 283 kts | 31° |
| 2026-05-06 19:54 | 57.24625 | -2.35096 | 19063 ft | 283 kts | 31° |
| 2026-05-06 19:55 | 57.26237 | -2.32998 | 19063 ft | 284 kts | 31° |
| 2026-05-06 19:55 | 57.27853 | -2.30892 | 19064 ft | 284 kts | 31° |
| 2026-05-06 19:55 | 57.29463 | -2.28796 | 19069 ft | 282 kts | 30° |
| 2026-05-06 19:55 | 57.31228 | -2.27461 | 19070 ft | 270 kts | 1° |
| 2026-05-06 19:56 | 57.33032 | -2.27811 | 19076 ft | 256 kts | 334° |
| 2026-05-06 19:56 | 57.34625 | -2.29210 | 19063 ft | 253 kts | 328° |
| 2026-05-06 19:56 | 57.36262 | -2.30475 | 19084 ft | 257 kts | 334° |
| 2026-05-06 19:56 | 57.37935 | -2.31547 | 19066 ft | 258 kts | 334° |
| 2026-05-06 19:57 | 57.39605 | -2.32723 | 19061 ft | 256 kts | 332° |
| 2026-05-06 19:57 | 57.41266 | -2.33934 | 19059 ft | 257 kts | 333° |
| 2026-05-06 19:57 | 57.42950 | -2.35090 | 19060 ft | 258 kts | 333° |
| 2026-05-06 19:57 | 57.44622 | -2.36281 | 19055 ft | 257 kts | 333° |
| 2026-05-06 19:58 | 57.46296 | -2.37468 | 19060 ft | 258 kts | 333° |
| 2026-05-06 19:58 | 57.47971 | -2.38648 | 19057 ft | 258 kts | 333° |
| 2026-05-06 19:58 | 57.49645 | -2.39837 | 19054 ft | 258 kts | 333° |
| 2026-05-06 19:58 | 57.51324 | -2.41028 | 19048 ft | 258 kts | 333° |
| 2026-05-06 19:59 | 57.53004 | -2.42217 | 19046 ft | 258 kts | 333° |
| 2026-05-06 19:59 | 57.54685 | -2.43414 | 19042 ft | 258 kts | 333° |
| 2026-05-06 19:59 | 57.56365 | -2.44608 | 19045 ft | 258 kts | 333° |
| 2026-05-06 19:59 | 57.58043 | -2.45803 | 19037 ft | 258 kts | 333° |
| 2026-05-06 20:00 | 57.59723 | -2.46999 | 19034 ft | 258 kts | 333° |
| 2026-05-06 20:00 | 57.61402 | -2.48199 | 19038 ft | 258 kts | 333° |
| 2026-05-06 20:00 | 57.63082 | -2.49396 | 19049 ft | 259 kts | 332° |
| 2026-05-06 20:00 | 57.64766 | -2.50601 | 19037 ft | 259 kts | 332° |
| 2026-05-06 20:01 | 57.66448 | -2.51805 | 19035 ft | 259 kts | 332° |
| 2026-05-06 20:01 | 57.68132 | -2.53009 | 19034 ft | 259 kts | 332° |
| 2026-05-06 20:01 | 57.69813 | -2.54216 | 19030 ft | 259 kts | 332° |
| 2026-05-06 20:01 | 57.71495 | -2.55421 | 19031 ft | 259 kts | 332° |
| 2026-05-06 20:02 | 57.73177 | -2.56631 | 19032 ft | 259 kts | 332° |
| 2026-05-06 20:02 | 57.74857 | -2.57838 | 19031 ft | 259 kts | 332° |
| 2026-05-06 20:02 | 57.76539 | -2.59050 | 19032 ft | 259 kts | 332° |
| 2026-05-06 20:02 | 57.78216 | -2.60256 | 19031 ft | 259 kts | 332° |
| 2026-05-06 20:03 | 57.79898 | -2.61471 | 19032 ft | 259 kts | 332° |
| 2026-05-06 20:03 | 57.81575 | -2.62681 | 19030 ft | 259 kts | 332° |
| 2026-05-06 20:03 | 57.82689 | -2.63487 | 19032 ft | 259 kts | 332° |
| 2026-05-06 20:03 | 57.84368 | -2.64699 | 19031 ft | 259 kts | 332° |
| 2026-05-06 20:04 | 57.86046 | -2.65916 | 19032 ft | 259 kts | 332° |
| 2026-05-06 20:04 | 57.87724 | -2.67130 | 19030 ft | 259 kts | 332° |
| 2026-05-06 20:04 | 57.89401 | -2.68347 | 19020 ft | 259 kts | 332° |
| 2026-05-06 20:04 | 57.91088 | -2.69570 | 19024 ft | 260 kts | 332° |
| 2026-05-06 20:05 | 57.92770 | -2.70795 | 19019 ft | 259 kts | 332° |
| 2026-05-06 20:05 | 57.94454 | -2.72018 | 19023 ft | 259 kts | 332° |
| 2026-05-06 20:05 | 57.96136 | -2.73244 | 19017 ft | 259 kts | 332° |
| 2026-05-06 20:05 | 57.97820 | -2.74470 | 19021 ft | 259 kts | 332° |
| 2026-05-06 20:06 | 57.99503 | -2.75700 | 19018 ft | 259 kts | 332° |
| 2026-05-06 20:06 | 58.01184 | -2.76927 | 19022 ft | 259 kts | 332° |
| 2026-05-06 20:06 | 58.02864 | -2.78155 | 19022 ft | 259 kts | 332° |
| 2026-05-06 20:06 | 58.04548 | -2.79388 | 19023 ft | 259 kts | 332° |
| 2026-05-06 20:07 | 58.06230 | -2.80620 | 19018 ft | 259 kts | 332° |
| 2026-05-06 20:07 | 58.07911 | -2.81854 | 19021 ft | 259 kts | 332° |
| 2026-05-06 20:07 | 58.09591 | -2.83086 | 19019 ft | 259 kts | 332° |
| 2026-05-06 20:07 | 58.11275 | -2.84325 | 19020 ft | 259 kts | 332° |
| 2026-05-06 20:08 | 58.12933 | -2.85542 | 19022 ft | 259 kts | 332° |
| 2026-05-06 20:08 | 58.14636 | -2.86798 | 19022 ft | 259 kts | 332° |
| 2026-05-06 20:08 | 58.16315 | -2.88034 | 19019 ft | 259 kts | 331° |
| 2026-05-06 20:08 | 58.17998 | -2.89278 | 19043 ft | 259 kts | 331° |
| 2026-05-06 20:09 | 58.19666 | -2.90512 | 18838 ft | 264 kts | 331° |
| 2026-05-06 20:09 | 58.21292 | -2.91694 | 18469 ft | 241 kts | 330° |
| 2026-05-06 20:09 | 58.22832 | -2.92851 | 18058 ft | 236 kts | 330° |
| 2026-05-06 20:09 | 58.24352 | -2.93978 | 17637 ft | 234 kts | 331° |
| 2026-05-06 20:10 | 58.25869 | -2.95100 | 17221 ft | 233 kts | 331° |
| 2026-05-06 20:10 | 58.27380 | -2.96223 | 16816 ft | 233 kts | 331° |
| 2026-05-06 20:10 | 58.28887 | -2.97342 | 16451 ft | 232 kts | 332° |
| 2026-05-06 20:10 | 58.30409 | -2.98479 | 16187 ft | 237 kts | 332° |
| 2026-05-06 20:11 | 58.31957 | -2.99625 | 15924 ft | 240 kts | 332° |
| 2026-05-06 20:11 | 58.33516 | -3.00788 | 15665 ft | 241 kts | 332° |
| 2026-05-06 20:11 | 58.35078 | -3.01952 | 15411 ft | 241 kts | 333° |
| 2026-05-06 20:11 | 58.36639 | -3.03117 | 15161 ft | 241 kts | 333° |
| 2026-05-06 20:12 | 58.38195 | -3.04278 | 14910 ft | 240 kts | 333° |
| 2026-05-06 20:12 | 58.39746 | -3.05439 | 14660 ft | 239 kts | 333° |
| 2026-05-06 20:12 | 58.41293 | -3.06596 | 14410 ft | 238 kts | 333° |
| 2026-05-06 20:12 | 58.42835 | -3.07752 | 14165 ft | 238 kts | 333° |
| 2026-05-06 20:13 | 58.44371 | -3.08903 | 13934 ft | 237 kts | 334° |
| 2026-05-06 20:13 | 58.45922 | -3.09930 | 13672 ft | 238 kts | 347° |
| 2026-05-06 20:13 | 58.47557 | -3.09631 | 13405 ft | 243 kts | 14° |
| 2026-05-06 20:13 | 58.49175 | -3.08674 | 13130 ft | 243 kts | 12° |
| 2026-05-06 20:14 | 58.50824 | -3.07985 | 12861 ft | 242 kts | 7° |
| 2026-05-06 20:14 | 58.52471 | -3.07394 | 12593 ft | 242 kts | 9° |
| 2026-05-06 20:14 | 58.54109 | -3.06679 | 12326 ft | 241 kts | 9° |
| 2026-05-06 20:14 | 58.55750 | -3.06012 | 12060 ft | 240 kts | 8° |
| 2026-05-06 20:15 | 58.57383 | -3.05362 | 11795 ft | 239 kts | 9° |
| 2026-05-06 20:15 | 58.59005 | -3.04682 | 11535 ft | 239 kts | 9° |
| 2026-05-06 20:15 | 58.60631 | -3.04022 | 11275 ft | 238 kts | 9° |
| 2026-05-06 20:15 | 58.62245 | -3.03364 | 11019 ft | 237 kts | 10° |
| 2026-05-06 20:16 | 58.63854 | -3.02698 | 10753 ft | 237 kts | 10° |
| 2026-05-06 20:16 | 58.65471 | -3.02038 | 10356 ft | 231 kts | 9° |
| 2026-05-06 20:16 | 58.67004 | -3.01409 | 9985 ft | 223 kts | 10° |
| 2026-05-06 20:16 | 58.68514 | -3.00785 | 9580 ft | 221 kts | 10° |
| 2026-05-06 20:17 | 58.70008 | -3.00170 | 9164 ft | 219 kts | 9° |
| 2026-05-06 20:17 | 58.71497 | -2.99558 | 8766 ft | 218 kts | 11° |
| 2026-05-06 20:17 | 58.72970 | -2.98952 | 8366 ft | 215 kts | 11° |
| 2026-05-06 20:17 | 58.74424 | -2.98347 | 7971 ft | 213 kts | 9° |
| 2026-05-06 20:18 | 58.75867 | -2.97756 | 7577 ft | 212 kts | 10° |
| 2026-05-06 20:18 | 58.77302 | -2.97161 | 7201 ft | 210 kts | 11° |
| 2026-05-06 20:18 | 58.78717 | -2.96573 | 6814 ft | 206 kts | 11° |
| 2026-05-06 20:18 | 58.80111 | -2.95997 | 6424 ft | 204 kts | 11° |
| 2026-05-06 20:19 | 58.81492 | -2.95426 | 6036 ft | 203 kts | 11° |
| 2026-05-06 20:19 | 58.82877 | -2.95070 | 5636 ft | 200 kts | 353° |
| 2026-05-06 20:19 | 58.84193 | -2.95864 | 5246 ft | 199 kts | 336° |
| 2026-05-06 20:19 | 58.85471 | -2.96914 | 4856 ft | 200 kts | 336° |
| 2026-05-06 20:20 | 58.86748 | -2.97992 | 4453 ft | 202 kts | 336° |
| 2026-05-06 20:20 | 58.88026 | -2.99093 | 4058 ft | 201 kts | 336° |
| 2026-05-06 20:20 | 58.89316 | -3.00214 | 3660 ft | 204 kts | 336° |
| 2026-05-06 20:20 | 58.90598 | -3.01345 | 3276 ft | 201 kts | 336° |
| 2026-05-06 20:21 | 58.91872 | -3.02462 | 2881 ft | 201 kts | 336° |
| 2026-05-06 20:21 | 58.93141 | -3.03295 | 2547 ft | 195 kts | 352° |
| 2026-05-06 20:21 | 58.94441 | -3.03211 | 2066 ft | 182 kts | 17° |
| 2026-05-06 20:21 | 58.95484 | -3.02156 | 1685 ft | 156 kts | 55° |
| 2026-05-06 20:22 | 58.95864 | -3.00486 | 1270 ft | 125 kts | 89° |
| 2026-05-06 20:22 | 58.95873 | -2.98712 | 1096 ft | 132 kts | 101° |
| 2026-05-06 20:22 | 58.95754 | -2.97108 | 843 ft | 115 kts | 102° |
| 2026-05-06 20:22 | 58.95715 | -2.95579 | 652 ft | 117 kts | 92° |
| 2026-05-06 20:23 | 58.95749 | -2.93937 | 437 ft | 126 kts | 93° |
| 2026-05-06 20:23 | 58.95751 | -2.92276 | 200 ft | 122 kts | 90° |
| 2026-05-06 20:23 | 58.95786 | -2.90684 | 63 ft | 106 kts | 90° |
| 2026-05-06 20:23 | 58.95816 | -2.89477 | 56 ft | 67 kts | 84° |
| 2026-05-06 20:24 | 58.95829 | -2.89052 | 54 ft | 0 kts | 76° |
| 2026-05-06 20:24 | 58.95821 | -2.89067 | 50 ft | 10 kts | 275° |
| 2026-05-06 20:24 | 58.95785 | -2.89359 | 56 ft | 31 kts | 221° |
| 2026-05-06 20:24 | 58.95637 | -2.89612 | 57 ft | 22 kts | 225° |
| 2026-05-06 20:25 | 58.95547 | -2.89762 | 57 ft | 13 kts | 220° |
| 2026-05-06 20:25 | 58.95490 | -2.89865 | 55 ft | 11 kts | 224° |
| 2026-05-06 20:25 | 58.95434 | -2.89995 | 56 ft | 8 kts | 238° |
| 2026-05-06 20:25 | 58.95416 | -2.90065 | 53 ft | 9 kts | 257° |
| 2026-05-06 20:26 | 58.95429 | -2.90131 | 57 ft | 0 kts | 320° |